sensor_id;sensor_type;location;lat;lon;timestamp;P1;durP1;ratioP1;P2;durP2;ratioP2
2305;SDS011;1161;51.922;8.896;2022-07-21T00:01:20;8.90;;;6.30;;
2305;SDS011;1161;51.922;8.896;2022-07-21T00:03:47;10.47;;;7.40;;
2305;SDS011;1161;51.922;8.896;2022-07-21T00:06:14;8.70;;;7.50;;
2305;SDS011;1161;51.922;8.896;2022-07-21T00:08:41;10.60;;;7.10;;
2305;SDS011;1161;51.922;8.896;2022-07-21T00:11:07;7.93;;;6.10;;
2305;SDS011;1161;51.922;8.896;2022-07-21T00:13:35;10.20;;;5.30;;
2305;SDS011;1161;51.922;8.896;2022-07-21T00:16:02;12.93;;;5.97;;
2305;SDS011;1161;51.922;8.896;2022-07-21T00:18:29;7.97;;;5.60;;
2305;SDS011;1161;51.922;8.896;2022-07-21T00:20:56;15.10;;;6.20;;
2305;SDS011;1161;51.922;8.896;2022-07-21T00:23:23;8.27;;;6.00;;
2305;SDS011;1161;51.922;8.896;2022-07-21T00:25:50;10.20;;;4.50;;
2305;SDS011;1161;51.922;8.896;2022-07-21T00:28:17;8.00;;;5.40;;
2305;SDS011;1161;51.922;8.896;2022-07-21T00:30:45;6.00;;;4.67;;
2305;SDS011;1161;51.922;8.896;2022-07-21T00:33:12;6.50;;;5.00;;
2305;SDS011;1161;51.922;8.896;2022-07-21T00:35:39;7.93;;;4.20;;
2305;SDS011;1161;51.922;8.896;2022-07-21T00:38:06;8.00;;;5.40;;
2305;SDS011;1161;51.922;8.896;2022-07-21T00:40:33;4.23;;;3.83;;
2305;SDS011;1161;51.922;8.896;2022-07-21T00:42:59;5.93;;;4.77;;
2305;SDS011;1161;51.922;8.896;2022-07-21T00:45:26;4.93;;;4.40;;
2305;SDS011;1161;51.922;8.896;2022-07-21T00:47:54;7.80;;;4.87;;
2305;SDS011;1161;51.922;8.896;2022-07-21T00:50:21;5.53;;;4.67;;
2305;SDS011;1161;51.922;8.896;2022-07-21T00:52:48;10.97;;;6.70;;
2305;SDS011;1161;51.922;8.896;2022-07-21T00:55:16;4.83;;;4.27;;
2305;SDS011;1161;51.922;8.896;2022-07-21T00:57:46;5.90;;;5.37;;
2305;SDS011;1161;51.922;8.896;2022-07-21T01:00:14;7.83;;;4.47;;
2305;SDS011;1161;51.922;8.896;2022-07-21T01:02:45;8.97;;;5.80;;
2305;SDS011;1161;51.922;8.896;2022-07-21T01:05:13;8.20;;;6.57;;
2305;SDS011;1161;51.922;8.896;2022-07-21T01:07:42;5.10;;;4.00;;
2305;SDS011;1161;51.922;8.896;2022-07-21T01:10:09;6.63;;;5.07;;
2305;SDS011;1161;51.922;8.896;2022-07-21T01:12:37;5.60;;;4.60;;
2305;SDS011;1161;51.922;8.896;2022-07-21T01:15:04;15.40;;;6.13;;
2305;SDS011;1161;51.922;8.896;2022-07-21T01:17:31;7.07;;;5.27;;
2305;SDS011;1161;51.922;8.896;2022-07-21T01:19:59;8.33;;;5.60;;
2305;SDS011;1161;51.922;8.896;2022-07-21T01:22:29;10.57;;;5.00;;
2305;SDS011;1161;51.922;8.896;2022-07-21T01:24:56;5.97;;;5.30;;
2305;SDS011;1161;51.922;8.896;2022-07-21T01:27:23;8.50;;;5.80;;
2305;SDS011;1161;51.922;8.896;2022-07-21T01:29:50;7.80;;;5.87;;
2305;SDS011;1161;51.922;8.896;2022-07-21T01:32:17;10.30;;;5.87;;
2305;SDS011;1161;51.922;8.896;2022-07-21T01:34:44;6.67;;;4.80;;
2305;SDS011;1161;51.922;8.896;2022-07-21T01:37:10;6.47;;;5.17;;
2305;SDS011;1161;51.922;8.896;2022-07-21T01:39:38;7.47;;;5.27;;
2305;SDS011;1161;51.922;8.896;2022-07-21T01:42:23;5.50;;;4.80;;
2305;SDS011;1161;51.922;8.896;2022-07-21T01:44:50;7.93;;;6.27;;
2305;SDS011;1161;51.922;8.896;2022-07-21T01:47:17;8.33;;;6.47;;
2305;SDS011;1161;51.922;8.896;2022-07-21T01:49:45;8.20;;;6.03;;
2305;SDS011;1161;51.922;8.896;2022-07-21T01:52:12;8.70;;;5.47;;
2305;SDS011;1161;51.922;8.896;2022-07-21T01:54:40;8.30;;;6.10;;
2305;SDS011;1161;51.922;8.896;2022-07-21T01:57:08;10.60;;;6.67;;
2305;SDS011;1161;51.922;8.896;2022-07-21T01:59:35;14.53;;;6.67;;
2305;SDS011;1161;51.922;8.896;2022-07-21T02:02:02;10.83;;;6.90;;
2305;SDS011;1161;51.922;8.896;2022-07-21T02:04:29;5.90;;;4.90;;
2305;SDS011;1161;51.922;8.896;2022-07-21T02:06:56;9.00;;;6.63;;
2305;SDS011;1161;51.922;8.896;2022-07-21T02:09:22;10.50;;;7.60;;
2305;SDS011;1161;51.922;8.896;2022-07-21T02:11:50;8.60;;;6.50;;
2305;SDS011;1161;51.922;8.896;2022-07-21T02:14:17;11.60;;;7.17;;
2305;SDS011;1161;51.922;8.896;2022-07-21T02:16:44;10.33;;;7.10;;
2305;SDS011;1161;51.922;8.896;2022-07-21T02:19:10;10.77;;;5.97;;
2305;SDS011;1161;51.922;8.896;2022-07-21T02:21:37;7.67;;;6.80;;
2305;SDS011;1161;51.922;8.896;2022-07-21T02:24:04;8.93;;;6.23;;
2305;SDS011;1161;51.922;8.896;2022-07-21T02:26:31;10.23;;;7.20;;
2305;SDS011;1161;51.922;8.896;2022-07-21T02:29:00;11.87;;;8.10;;
2305;SDS011;1161;51.922;8.896;2022-07-21T02:31:26;9.83;;;7.83;;
2305;SDS011;1161;51.922;8.896;2022-07-21T02:33:53;9.83;;;7.53;;
2305;SDS011;1161;51.922;8.896;2022-07-21T02:36:20;8.63;;;7.53;;
2305;SDS011;1161;51.922;8.896;2022-07-21T02:38:47;9.33;;;7.43;;
2305;SDS011;1161;51.922;8.896;2022-07-21T02:41:16;7.83;;;7.03;;
2305;SDS011;1161;51.922;8.896;2022-07-21T02:43:43;13.60;;;7.23;;
2305;SDS011;1161;51.922;8.896;2022-07-21T02:46:11;17.00;;;7.87;;
2305;SDS011;1161;51.922;8.896;2022-07-21T02:48:38;10.07;;;7.30;;
2305;SDS011;1161;51.922;8.896;2022-07-21T02:51:05;14.73;;;8.50;;
2305;SDS011;1161;51.922;8.896;2022-07-21T02:53:31;9.57;;;8.40;;
2305;SDS011;1161;51.922;8.896;2022-07-21T02:55:58;11.93;;;8.27;;
2305;SDS011;1161;51.922;8.896;2022-07-21T02:58:25;11.70;;;9.00;;
2305;SDS011;1161;51.922;8.896;2022-07-21T03:00:54;16.97;;;9.07;;
2305;SDS011;1161;51.922;8.896;2022-07-21T03:03:23;16.13;;;9.80;;
2305;SDS011;1161;51.922;8.896;2022-07-21T03:05:52;14.30;;;9.60;;
2305;SDS011;1161;51.922;8.896;2022-07-21T03:08:18;17.77;;;11.20;;
2305;SDS011;1161;51.922;8.896;2022-07-21T03:10:45;13.60;;;9.80;;
2305;SDS011;1161;51.922;8.896;2022-07-21T03:13:13;15.70;;;10.70;;
2305;SDS011;1161;51.922;8.896;2022-07-21T03:15:41;13.17;;;9.97;;
2305;SDS011;1161;51.922;8.896;2022-07-21T03:18:08;10.33;;;8.80;;
2305;SDS011;1161;51.922;8.896;2022-07-21T03:20:38;11.43;;;8.70;;
2305;SDS011;1161;51.922;8.896;2022-07-21T03:23:06;11.60;;;10.30;;
2305;SDS011;1161;51.922;8.896;2022-07-21T03:25:33;11.50;;;9.50;;
2305;SDS011;1161;51.922;8.896;2022-07-21T03:28:01;10.27;;;9.33;;
2305;SDS011;1161;51.922;8.896;2022-07-21T03:30:28;16.87;;;9.90;;
2305;SDS011;1161;51.922;8.896;2022-07-21T03:32:56;13.20;;;9.70;;
2305;SDS011;1161;51.922;8.896;2022-07-21T03:35:25;14.10;;;9.53;;
2305;SDS011;1161;51.922;8.896;2022-07-21T03:37:54;14.30;;;10.20;;
2305;SDS011;1161;51.922;8.896;2022-07-21T03:40:23;19.10;;;10.47;;
2305;SDS011;1161;51.922;8.896;2022-07-21T03:42:51;14.03;;;10.03;;
2305;SDS011;1161;51.922;8.896;2022-07-21T03:45:22;14.33;;;10.40;;
2305;SDS011;1161;51.922;8.896;2022-07-21T03:47:49;15.07;;;9.00;;
2305;SDS011;1161;51.922;8.896;2022-07-21T03:50:16;11.30;;;9.63;;
2305;SDS011;1161;51.922;8.896;2022-07-21T03:52:44;11.43;;;8.43;;
2305;SDS011;1161;51.922;8.896;2022-07-21T03:55:14;9.80;;;8.80;;
2305;SDS011;1161;51.922;8.896;2022-07-21T03:57:48;11.47;;;8.30;;
2305;SDS011;1161;51.922;8.896;2022-07-21T04:00:16;11.03;;;8.90;;
2305;SDS011;1161;51.922;8.896;2022-07-21T04:02:45;11.00;;;9.00;;
2305;SDS011;1161;51.922;8.896;2022-07-21T04:05:14;13.17;;;8.43;;
2305;SDS011;1161;51.922;8.896;2022-07-21T04:07:42;10.70;;;8.30;;
2305;SDS011;1161;51.922;8.896;2022-07-21T04:10:12;14.10;;;8.77;;
2305;SDS011;1161;51.922;8.896;2022-07-21T04:12:42;10.60;;;7.10;;
2305;SDS011;1161;51.922;8.896;2022-07-21T04:15:11;10.70;;;7.90;;
2305;SDS011;1161;51.922;8.896;2022-07-21T04:17:38;11.53;;;8.27;;
2305;SDS011;1161;51.922;8.896;2022-07-21T04:20:06;11.73;;;7.77;;
2305;SDS011;1161;51.922;8.896;2022-07-21T04:22:35;11.30;;;8.47;;
2305;SDS011;1161;51.922;8.896;2022-07-21T04:25:02;9.93;;;7.37;;
2305;SDS011;1161;51.922;8.896;2022-07-21T04:27:32;11.37;;;8.67;;
2305;SDS011;1161;51.922;8.896;2022-07-21T04:30:00;11.90;;;9.00;;
2305;SDS011;1161;51.922;8.896;2022-07-21T04:32:27;14.93;;;9.90;;
2305;SDS011;1161;51.922;8.896;2022-07-21T04:34:54;18.77;;;10.10;;
2305;SDS011;1161;51.922;8.896;2022-07-21T04:37:22;18.03;;;11.87;;
2305;SDS011;1161;51.922;8.896;2022-07-21T04:39:49;12.47;;;10.73;;
2305;SDS011;1161;51.922;8.896;2022-07-21T04:42:16;14.67;;;11.60;;
2305;SDS011;1161;51.922;8.896;2022-07-21T04:44:44;13.53;;;11.63;;
2305;SDS011;1161;51.922;8.896;2022-07-21T04:47:11;13.13;;;10.90;;
2305;SDS011;1161;51.922;8.896;2022-07-21T04:49:39;13.97;;;8.53;;
2305;SDS011;1161;51.922;8.896;2022-07-21T04:52:06;11.50;;;9.43;;
2305;SDS011;1161;51.922;8.896;2022-07-21T04:54:33;13.30;;;9.10;;
2305;SDS011;1161;51.922;8.896;2022-07-21T04:57:00;12.90;;;10.17;;
2305;SDS011;1161;51.922;8.896;2022-07-21T04:59:28;11.00;;;9.07;;
2305;SDS011;1161;51.922;8.896;2022-07-21T05:01:57;12.83;;;9.30;;
2305;SDS011;1161;51.922;8.896;2022-07-21T05:04:25;9.80;;;8.37;;
2305;SDS011;1161;51.922;8.896;2022-07-21T05:06:52;10.77;;;7.40;;
2305;SDS011;1161;51.922;8.896;2022-07-21T05:09:19;11.50;;;8.60;;
2305;SDS011;1161;51.922;8.896;2022-07-21T05:11:46;11.03;;;8.07;;
2305;SDS011;1161;51.922;8.896;2022-07-21T05:14:14;10.80;;;8.23;;
2305;SDS011;1161;51.922;8.896;2022-07-21T05:16:42;13.20;;;10.03;;
2305;SDS011;1161;51.922;8.896;2022-07-21T05:19:10;15.70;;;11.40;;
2305;SDS011;1161;51.922;8.896;2022-07-21T05:21:38;21.00;;;12.27;;
2305;SDS011;1161;51.922;8.896;2022-07-21T05:24:05;17.07;;;11.57;;
2305;SDS011;1161;51.922;8.896;2022-07-21T05:26:32;25.30;;;15.30;;
2305;SDS011;1161;51.922;8.896;2022-07-21T05:28:59;27.87;;;17.20;;
2305;SDS011;1161;51.922;8.896;2022-07-21T05:31:26;30.00;;;19.17;;
2305;SDS011;1161;51.922;8.896;2022-07-21T05:33:53;33.63;;;19.90;;
2305;SDS011;1161;51.922;8.896;2022-07-21T05:36:22;34.13;;;20.43;;
2305;SDS011;1161;51.922;8.896;2022-07-21T05:38:49;33.90;;;19.93;;
2305;SDS011;1161;51.922;8.896;2022-07-21T05:41:17;34.07;;;22.37;;
2305;SDS011;1161;51.922;8.896;2022-07-21T05:43:44;35.73;;;21.10;;
2305;SDS011;1161;51.922;8.896;2022-07-21T05:46:11;27.20;;;18.13;;
2305;SDS011;1161;51.922;8.896;2022-07-21T05:48:38;34.73;;;19.83;;
2305;SDS011;1161;51.922;8.896;2022-07-21T05:51:06;33.70;;;19.90;;
2305;SDS011;1161;51.922;8.896;2022-07-21T05:53:34;32.13;;;19.57;;
2305;SDS011;1161;51.922;8.896;2022-07-21T05:56:01;34.87;;;20.60;;
2305;SDS011;1161;51.922;8.896;2022-07-21T05:58:27;41.03;;;22.00;;
2305;SDS011;1161;51.922;8.896;2022-07-21T06:00:54;40.90;;;24.10;;
2305;SDS011;1161;51.922;8.896;2022-07-21T06:03:41;47.43;;;23.60;;
2305;SDS011;1161;51.922;8.896;2022-07-21T06:06:09;40.00;;;22.77;;
2305;SDS011;1161;51.922;8.896;2022-07-21T06:08:37;36.30;;;21.30;;
2305;SDS011;1161;51.922;8.896;2022-07-21T06:11:05;42.40;;;25.60;;
2305;SDS011;1161;51.922;8.896;2022-07-21T06:13:33;39.83;;;23.30;;
2305;SDS011;1161;51.922;8.896;2022-07-21T06:15:59;37.20;;;24.20;;
2305;SDS011;1161;51.922;8.896;2022-07-21T06:18:26;33.07;;;21.30;;
2305;SDS011;1161;51.922;8.896;2022-07-21T06:20:53;41.17;;;21.10;;
2305;SDS011;1161;51.922;8.896;2022-07-21T06:23:19;41.70;;;22.40;;
2305;SDS011;1161;51.922;8.896;2022-07-21T06:25:47;32.13;;;19.80;;
2305;SDS011;1161;51.922;8.896;2022-07-21T06:28:14;34.20;;;20.63;;
2305;SDS011;1161;51.922;8.896;2022-07-21T06:30:41;28.80;;;17.20;;
2305;SDS011;1161;51.922;8.896;2022-07-21T06:33:08;20.80;;;14.20;;
2305;SDS011;1161;51.922;8.896;2022-07-21T06:35:35;32.23;;;19.70;;
2305;SDS011;1161;51.922;8.896;2022-07-21T06:38:02;22.77;;;16.97;;
2305;SDS011;1161;51.922;8.896;2022-07-21T06:40:29;18.97;;;14.80;;
2305;SDS011;1161;51.922;8.896;2022-07-21T06:42:57;22.07;;;15.30;;
2305;SDS011;1161;51.922;8.896;2022-07-21T06:45:24;23.10;;;15.73;;
2305;SDS011;1161;51.922;8.896;2022-07-21T06:47:58;24.60;;;15.03;;
2305;SDS011;1161;51.922;8.896;2022-07-21T06:50:25;19.03;;;12.83;;
2305;SDS011;1161;51.922;8.896;2022-07-21T06:52:52;19.63;;;13.47;;
2305;SDS011;1161;51.922;8.896;2022-07-21T06:55:18;20.10;;;11.50;;
2305;SDS011;1161;51.922;8.896;2022-07-21T06:57:45;13.67;;;11.50;;
2305;SDS011;1161;51.922;8.896;2022-07-21T07:00:14;27.67;;;12.87;;
2305;SDS011;1161;51.922;8.896;2022-07-21T07:02:41;15.00;;;11.17;;
2305;SDS011;1161;51.922;8.896;2022-07-21T07:05:08;12.73;;;9.57;;
2305;SDS011;1161;51.922;8.896;2022-07-21T07:07:35;13.43;;;9.67;;
2305;SDS011;1161;51.922;8.896;2022-07-21T07:10:01;13.83;;;9.83;;
2305;SDS011;1161;51.922;8.896;2022-07-21T07:12:29;10.60;;;9.53;;
2305;SDS011;1161;51.922;8.896;2022-07-21T07:14:57;12.93;;;9.27;;
2305;SDS011;1161;51.922;8.896;2022-07-21T07:17:24;17.97;;;11.37;;
2305;SDS011;1161;51.922;8.896;2022-07-21T07:19:51;19.00;;;11.97;;
2305;SDS011;1161;51.922;8.896;2022-07-21T07:22:18;22.43;;;12.30;;
2305;SDS011;1161;51.922;8.896;2022-07-21T07:24:45;20.00;;;14.00;;
2305;SDS011;1161;51.922;8.896;2022-07-21T07:27:12;29.40;;;13.90;;
2305;SDS011;1161;51.922;8.896;2022-07-21T07:29:39;18.10;;;13.43;;
2305;SDS011;1161;51.922;8.896;2022-07-21T07:32:06;27.30;;;14.50;;
2305;SDS011;1161;51.922;8.896;2022-07-21T07:34:35;17.07;;;13.37;;
2305;SDS011;1161;51.922;8.896;2022-07-21T07:37:02;16.30;;;11.37;;
2305;SDS011;1161;51.922;8.896;2022-07-21T07:39:28;13.40;;;11.47;;
2305;SDS011;1161;51.922;8.896;2022-07-21T07:41:55;12.07;;;9.70;;
2305;SDS011;1161;51.922;8.896;2022-07-21T07:44:22;12.83;;;10.23;;
2305;SDS011;1161;51.922;8.896;2022-07-21T07:46:49;10.00;;;9.00;;
2305;SDS011;1161;51.922;8.896;2022-07-21T07:49:15;20.57;;;12.30;;
2305;SDS011;1161;51.922;8.896;2022-07-21T07:51:44;15.67;;;10.83;;
2305;SDS011;1161;51.922;8.896;2022-07-21T07:54:11;15.27;;;10.50;;
2305;SDS011;1161;51.922;8.896;2022-07-21T07:56:37;11.90;;;10.47;;
2305;SDS011;1161;51.922;8.896;2022-07-21T07:59:04;13.97;;;10.57;;
2305;SDS011;1161;51.922;8.896;2022-07-21T08:01:30;16.67;;;11.93;;
2305;SDS011;1161;51.922;8.896;2022-07-21T08:03:57;17.03;;;12.20;;
2305;SDS011;1161;51.922;8.896;2022-07-21T08:06:24;22.30;;;12.20;;
2305;SDS011;1161;51.922;8.896;2022-07-21T08:08:52;14.70;;;11.40;;
2305;SDS011;1161;51.922;8.896;2022-07-21T08:11:18;15.37;;;12.03;;
2305;SDS011;1161;51.922;8.896;2022-07-21T08:13:45;14.77;;;11.17;;
2305;SDS011;1161;51.922;8.896;2022-07-21T08:16:12;15.93;;;11.00;;
2305;SDS011;1161;51.922;8.896;2022-07-21T08:18:41;14.73;;;12.03;;
2305;SDS011;1161;51.922;8.896;2022-07-21T08:21:08;18.43;;;12.70;;
2305;SDS011;1161;51.922;8.896;2022-07-21T08:23:34;15.47;;;12.27;;
2305;SDS011;1161;51.922;8.896;2022-07-21T08:26:03;15.93;;;11.67;;
2305;SDS011;1161;51.922;8.896;2022-07-21T08:28:30;16.20;;;12.67;;
2305;SDS011;1161;51.922;8.896;2022-07-21T08:30:57;13.40;;;11.97;;
2305;SDS011;1161;51.922;8.896;2022-07-21T08:33:24;14.60;;;12.10;;
2305;SDS011;1161;51.922;8.896;2022-07-21T08:35:50;17.80;;;11.00;;
2305;SDS011;1161;51.922;8.896;2022-07-21T08:38:17;14.77;;;11.10;;
2305;SDS011;1161;51.922;8.896;2022-07-21T08:40:45;16.33;;;11.93;;
2305;SDS011;1161;51.922;8.896;2022-07-21T08:43:14;21.40;;;12.83;;
2305;SDS011;1161;51.922;8.896;2022-07-21T08:45:40;18.83;;;11.87;;
2305;SDS011;1161;51.922;8.896;2022-07-21T08:48:08;17.83;;;12.10;;
2305;SDS011;1161;51.922;8.896;2022-07-21T08:50:37;16.40;;;13.07;;
2305;SDS011;1161;51.922;8.896;2022-07-21T08:53:05;20.27;;;11.90;;
2305;SDS011;1161;51.922;8.896;2022-07-21T08:55:32;19.87;;;13.37;;
2305;SDS011;1161;51.922;8.896;2022-07-21T08:58:00;18.07;;;11.87;;
2305;SDS011;1161;51.922;8.896;2022-07-21T09:00:29;15.43;;;12.97;;
2305;SDS011;1161;51.922;8.896;2022-07-21T09:03:10;16.10;;;11.80;;
2305;SDS011;1161;51.922;8.896;2022-07-21T09:05:38;16.97;;;11.70;;
2305;SDS011;1161;51.922;8.896;2022-07-21T09:08:05;13.83;;;10.77;;
2305;SDS011;1161;51.922;8.896;2022-07-21T09:10:32;15.17;;;10.60;;
2305;SDS011;1161;51.922;8.896;2022-07-21T09:13:02;12.10;;;10.50;;
2305;SDS011;1161;51.922;8.896;2022-07-21T09:15:31;12.43;;;10.23;;
2305;SDS011;1161;51.922;8.896;2022-07-21T09:18:06;13.03;;;9.87;;
2305;SDS011;1161;51.922;8.896;2022-07-21T09:20:35;12.47;;;10.73;;
2305;SDS011;1161;51.922;8.896;2022-07-21T09:23:03;14.10;;;10.03;;
2305;SDS011;1161;51.922;8.896;2022-07-21T09:25:35;11.37;;;8.63;;
2305;SDS011;1161;51.922;8.896;2022-07-21T09:28:10;12.83;;;10.60;;
2305;SDS011;1161;51.922;8.896;2022-07-21T09:30:50;15.53;;;10.50;;
2305;SDS011;1161;51.922;8.896;2022-07-21T09:33:19;21.13;;;11.60;;
2305;SDS011;1161;51.922;8.896;2022-07-21T09:35:53;15.47;;;11.07;;
2305;SDS011;1161;51.922;8.896;2022-07-21T09:38:22;14.70;;;10.67;;
2305;SDS011;1161;51.922;8.896;2022-07-21T09:40:50;12.93;;;10.60;;
2305;SDS011;1161;51.922;8.896;2022-07-21T09:43:32;14.90;;;10.13;;
2305;SDS011;1161;51.922;8.896;2022-07-21T09:46:14;12.87;;;9.33;;
2305;SDS011;1161;51.922;8.896;2022-07-21T09:48:42;15.77;;;12.37;;
2305;SDS011;1161;51.922;8.896;2022-07-21T09:51:23;14.13;;;11.93;;
2305;SDS011;1161;51.922;8.896;2022-07-21T09:53:54;16.00;;;10.73;;
2305;SDS011;1161;51.922;8.896;2022-07-21T09:56:22;21.43;;;12.70;;
2305;SDS011;1161;51.922;8.896;2022-07-21T09:58:50;14.43;;;11.80;;
2305;SDS011;1161;51.922;8.896;2022-07-21T10:01:20;18.40;;;13.23;;
2305;SDS011;1161;51.922;8.896;2022-07-21T10:03:48;15.13;;;11.37;;
2305;SDS011;1161;51.922;8.896;2022-07-21T10:06:16;18.57;;;13.90;;
2305;SDS011;1161;51.922;8.896;2022-07-21T10:08:45;16.97;;;12.20;;
2305;SDS011;1161;51.922;8.896;2022-07-21T10:11:12;18.10;;;13.53;;
2305;SDS011;1161;51.922;8.896;2022-07-21T10:13:38;16.00;;;12.73;;
2305;SDS011;1161;51.922;8.896;2022-07-21T10:16:10;16.37;;;11.43;;
2305;SDS011;1161;51.922;8.896;2022-07-21T10:18:39;16.03;;;12.67;;
2305;SDS011;1161;51.922;8.896;2022-07-21T10:21:16;16.67;;;11.43;;
2305;SDS011;1161;51.922;8.896;2022-07-21T10:23:52;17.37;;;12.50;;
2305;SDS011;1161;51.922;8.896;2022-07-21T10:26:20;16.63;;;11.17;;
2305;SDS011;1161;51.922;8.896;2022-07-21T10:28:47;14.13;;;11.67;;
2305;SDS011;1161;51.922;8.896;2022-07-21T10:31:14;11.63;;;9.93;;
2305;SDS011;1161;51.922;8.896;2022-07-21T10:33:52;13.63;;;9.57;;
2305;SDS011;1161;51.922;8.896;2022-07-21T10:36:42;14.10;;;11.10;;
2305;SDS011;1161;51.922;8.896;2022-07-21T10:39:23;12.80;;;10.20;;
2305;SDS011;1161;51.922;8.896;2022-07-21T10:41:52;14.77;;;9.80;;
2305;SDS011;1161;51.922;8.896;2022-07-21T10:47:10;15.60;;;10.60;;
2305;SDS011;1161;51.922;8.896;2022-07-21T10:49:49;13.40;;;9.40;;
2305;SDS011;1161;51.922;8.896;2022-07-21T10:55:26;8.90;;;8.00;;
2305;SDS011;1161;51.922;8.896;2022-07-21T11:00:50;12.27;;;7.37;;
2305;SDS011;1161;51.922;8.896;2022-07-21T11:03:20;10.23;;;7.70;;
2305;SDS011;1161;51.922;8.896;2022-07-21T11:08:44;8.10;;;6.80;;
2305;SDS011;1161;51.922;8.896;2022-07-21T11:11:13;10.23;;;7.77;;
2305;SDS011;1161;51.922;8.896;2022-07-21T11:13:58;8.43;;;7.17;;
2305;SDS011;1161;51.922;8.896;2022-07-21T11:19:34;10.00;;;8.63;;
2305;SDS011;1161;51.922;8.896;2022-07-21T11:22:06;9.27;;;7.20;;
2305;SDS011;1161;51.922;8.896;2022-07-21T11:24:35;10.00;;;7.30;;
2305;SDS011;1161;51.922;8.896;2022-07-21T11:27:03;9.37;;;8.37;;
2305;SDS011;1161;51.922;8.896;2022-07-21T11:29:32;8.80;;;7.53;;
2305;SDS011;1161;51.922;8.896;2022-07-21T11:31:59;7.90;;;7.10;;
2305;SDS011;1161;51.922;8.896;2022-07-21T11:34:36;8.83;;;7.10;;
2305;SDS011;1161;51.922;8.896;2022-07-21T11:37:10;8.83;;;7.90;;
2305;SDS011;1161;51.922;8.896;2022-07-21T11:39:38;9.60;;;6.97;;
2305;SDS011;1161;51.922;8.896;2022-07-21T11:42:05;10.40;;;6.53;;
2305;SDS011;1161;51.922;8.896;2022-07-21T11:44:33;8.03;;;7.33;;
2305;SDS011;1161;51.922;8.896;2022-07-21T11:47:00;8.47;;;7.50;;
2305;SDS011;1161;51.922;8.896;2022-07-21T11:49:28;7.23;;;6.50;;
2305;SDS011;1161;51.922;8.896;2022-07-21T11:51:58;8.80;;;7.73;;
2305;SDS011;1161;51.922;8.896;2022-07-21T11:54:28;7.13;;;6.33;;
2305;SDS011;1161;51.922;8.896;2022-07-21T11:56:57;7.93;;;5.67;;
2305;SDS011;1161;51.922;8.896;2022-07-21T11:59:27;6.07;;;5.57;;
2305;SDS011;1161;51.922;8.896;2022-07-21T12:01:55;6.30;;;5.70;;
2305;SDS011;1161;51.922;8.896;2022-07-21T12:04:33;8.27;;;6.80;;
2305;SDS011;1161;51.922;8.896;2022-07-21T12:07:02;8.93;;;6.97;;
2305;SDS011;1161;51.922;8.896;2022-07-21T12:09:32;13.40;;;7.53;;
2305;SDS011;1161;51.922;8.896;2022-07-21T12:11:59;7.10;;;6.40;;
2305;SDS011;1161;51.922;8.896;2022-07-21T12:14:38;8.83;;;6.13;;
2305;SDS011;1161;51.922;8.896;2022-07-21T12:17:06;6.40;;;5.77;;
2305;SDS011;1161;51.922;8.896;2022-07-21T12:19:32;7.60;;;6.80;;
2305;SDS011;1161;51.922;8.896;2022-07-21T12:21:59;6.03;;;5.53;;
2305;SDS011;1161;51.922;8.896;2022-07-21T12:27:16;8.60;;;7.00;;
2305;SDS011;1161;51.922;8.896;2022-07-21T12:29:43;15.03;;;7.13;;
2305;SDS011;1161;51.922;8.896;2022-07-21T12:32:10;11.93;;;8.30;;
2305;SDS011;1161;51.922;8.896;2022-07-21T12:34:47;9.40;;;7.37;;
2305;SDS011;1161;51.922;8.896;2022-07-21T12:37:14;16.07;;;9.57;;
2305;SDS011;1161;51.922;8.896;2022-07-21T12:39:41;13.40;;;9.33;;
2305;SDS011;1161;51.922;8.896;2022-07-21T12:42:31;8.40;;;7.30;;
2305;SDS011;1161;51.922;8.896;2022-07-21T12:44:59;9.00;;;7.80;;
2305;SDS011;1161;51.922;8.896;2022-07-21T12:47:26;9.67;;;7.20;;
2305;SDS011;1161;51.922;8.896;2022-07-21T12:49:59;8.57;;;6.93;;
2305;SDS011;1161;51.922;8.896;2022-07-21T12:52:27;21.77;;;8.87;;
2305;SDS011;1161;51.922;8.896;2022-07-21T12:54:55;11.50;;;8.00;;
2305;SDS011;1161;51.922;8.896;2022-07-21T12:57:24;6.33;;;5.77;;
2305;SDS011;1161;51.922;8.896;2022-07-21T12:59:53;17.50;;;6.93;;
2305;SDS011;1161;51.922;8.896;2022-07-21T13:02:20;8.20;;;6.30;;
2305;SDS011;1161;51.922;8.896;2022-07-21T13:04:47;8.27;;;6.03;;
2305;SDS011;1161;51.922;8.896;2022-07-21T13:07:14;9.40;;;6.60;;
2305;SDS011;1161;51.922;8.896;2022-07-21T13:09:41;9.10;;;6.73;;
2305;SDS011;1161;51.922;8.896;2022-07-21T13:12:07;7.53;;;6.30;;
2305;SDS011;1161;51.922;8.896;2022-07-21T13:14:34;14.80;;;8.03;;
2305;SDS011;1161;51.922;8.896;2022-07-21T13:17:02;8.23;;;6.60;;
2305;SDS011;1161;51.922;8.896;2022-07-21T13:19:29;8.10;;;7.30;;
2305;SDS011;1161;51.922;8.896;2022-07-21T13:21:56;12.60;;;8.50;;
2305;SDS011;1161;51.922;8.896;2022-07-21T13:24:22;8.00;;;6.73;;
2305;SDS011;1161;51.922;8.896;2022-07-21T13:26:49;8.40;;;7.23;;
2305;SDS011;1161;51.922;8.896;2022-07-21T13:29:16;8.33;;;7.50;;
2305;SDS011;1161;51.922;8.896;2022-07-21T13:31:42;12.10;;;7.97;;
2305;SDS011;1161;51.922;8.896;2022-07-21T13:34:10;9.60;;;7.13;;
2305;SDS011;1161;51.922;8.896;2022-07-21T13:36:37;8.87;;;7.97;;
2305;SDS011;1161;51.922;8.896;2022-07-21T13:39:04;12.90;;;8.13;;
2305;SDS011;1161;51.922;8.896;2022-07-21T13:41:32;8.37;;;7.17;;
2305;SDS011;1161;51.922;8.896;2022-07-21T13:44:00;11.67;;;8.83;;
2305;SDS011;1161;51.922;8.896;2022-07-21T13:46:26;9.40;;;8.53;;
2305;SDS011;1161;51.922;8.896;2022-07-21T13:48:54;14.67;;;8.40;;
2305;SDS011;1161;51.922;8.896;2022-07-21T13:51:22;10.13;;;9.13;;
2305;SDS011;1161;51.922;8.896;2022-07-21T13:53:50;14.30;;;10.00;;
2305;SDS011;1161;51.922;8.896;2022-07-21T13:56:18;10.63;;;8.57;;
2305;SDS011;1161;51.922;8.896;2022-07-21T13:58:45;8.80;;;8.00;;
2305;SDS011;1161;51.922;8.896;2022-07-21T14:01:12;17.30;;;11.07;;
2305;SDS011;1161;51.922;8.896;2022-07-21T14:03:39;24.43;;;12.13;;
2305;SDS011;1161;51.922;8.896;2022-07-21T14:06:07;17.57;;;10.73;;
2305;SDS011;1161;51.922;8.896;2022-07-21T14:08:35;16.40;;;9.87;;
2305;SDS011;1161;51.922;8.896;2022-07-21T14:11:02;16.63;;;10.87;;
2305;SDS011;1161;51.922;8.896;2022-07-21T14:13:28;19.03;;;11.70;;
2305;SDS011;1161;51.922;8.896;2022-07-21T14:15:55;21.10;;;13.27;;
2305;SDS011;1161;51.922;8.896;2022-07-21T14:18:22;24.53;;;13.40;;
2305;SDS011;1161;51.922;8.896;2022-07-21T14:20:49;23.13;;;15.10;;
2305;SDS011;1161;51.922;8.896;2022-07-21T14:23:20;29.43;;;17.27;;
2305;SDS011;1161;51.922;8.896;2022-07-21T14:25:48;26.47;;;17.20;;
2305;SDS011;1161;51.922;8.896;2022-07-21T14:28:16;20.80;;;15.47;;
2305;SDS011;1161;51.922;8.896;2022-07-21T14:30:44;28.20;;;16.03;;
2305;SDS011;1161;51.922;8.896;2022-07-21T14:33:10;22.57;;;15.60;;
2305;SDS011;1161;51.922;8.896;2022-07-21T14:35:37;18.30;;;14.10;;
2305;SDS011;1161;51.922;8.896;2022-07-21T14:38:05;27.43;;;15.03;;
2305;SDS011;1161;51.922;8.896;2022-07-21T14:40:31;29.50;;;16.10;;
2305;SDS011;1161;51.922;8.896;2022-07-21T14:42:59;24.33;;;16.30;;
2305;SDS011;1161;51.922;8.896;2022-07-21T14:45:26;20.40;;;15.20;;
2305;SDS011;1161;51.922;8.896;2022-07-21T14:47:54;21.67;;;13.23;;
2305;SDS011;1161;51.922;8.896;2022-07-21T14:50:22;16.63;;;11.70;;
2305;SDS011;1161;51.922;8.896;2022-07-21T14:52:51;13.27;;;11.53;;
2305;SDS011;1161;51.922;8.896;2022-07-21T14:55:17;16.60;;;11.80;;
2305;SDS011;1161;51.922;8.896;2022-07-21T14:57:46;14.67;;;11.00;;
2305;SDS011;1161;51.922;8.896;2022-07-21T15:00:14;14.67;;;12.23;;
2305;SDS011;1161;51.922;8.896;2022-07-21T15:02:41;16.50;;;11.47;;
2305;SDS011;1161;51.922;8.896;2022-07-21T15:05:08;13.27;;;11.77;;
2305;SDS011;1161;51.922;8.896;2022-07-21T15:07:35;11.77;;;9.70;;
2305;SDS011;1161;51.922;8.896;2022-07-21T15:10:01;20.10;;;11.20;;
2305;SDS011;1161;51.922;8.896;2022-07-21T15:12:28;14.50;;;10.60;;
2305;SDS011;1161;51.922;8.896;2022-07-21T15:14:55;11.90;;;9.30;;
2305;SDS011;1161;51.922;8.896;2022-07-21T15:17:23;20.37;;;11.10;;
2305;SDS011;1161;51.922;8.896;2022-07-21T15:19:51;10.47;;;8.97;;
2305;SDS011;1161;51.922;8.896;2022-07-21T15:22:19;12.07;;;8.70;;